Terminal Aerodrome Forecast
Issued by NWS

Current Version | Previous Version | Text Only | Print | Product List | Glossary On
Versions: 1 2 3 4 5 6 7 8 9 10 11 12 13 14 15 16 17 18 19 20 21 22 23 24 25 26 27 28 29 30 31 32 33 34 35 36 37 38 39 40 41 42
117
FTUS41 KPHI 131728
TAFMIV
TAF
KMIV 131728Z 1318/1418 19004KT P6SM SCT045
     FM132200 15004KT P6SM BKN045
     FM140900 15004KT P6SM -SHRA SCT015 OVC035
     FM141400 19005KT P6SM BKN015=

USA.gov is the U.S. government's official web portal to all federal, state and local government web resources and services.